Time;durP1;ratioP1;P1;durP2;ratioP2;P2;SDS_P1;SDS_P2;PMS_P1;PMS_P2;Temp;Humidity;BMP_temperature;BMP_pressure;BME280_temperature;BME280_humidity;BME280_pressure;Samples;Min_cycle;Max_cycle;Signal;HPM_P1;HPM_P2
2023/08/13 00:02:10;;;;;;;16.17;2.87;;;18.80;99.90;;;;;;7278610;19;20201;-75
2023/08/13 00:04:35;;;;;;;18.27;2.47;;;18.80;99.90;;;;;;7282701;19;20282;-75
2023/08/13 00:07:02;;;;;;;13.00;2.83;;;18.60;99.90;;;;;;7300228;19;20197;-75
2023/08/13 00:09:27;;;;;;;12.90;2.40;;;18.50;99.90;;;;;;7279985;19;20719;-75
2023/08/13 00:11:53;;;;;;;13.17;2.70;;;18.40;99.90;;;;;;7278402;19;20262;-76
2023/08/13 00:14:19;;;;;;;15.07;2.80;;;18.30;99.90;;;;;;7277838;19;20193;-76
2023/08/13 00:16:47;;;;;;;13.27;2.43;;;18.30;99.90;;;;;;7279781;19;20224;-76
2023/08/13 00:19:13;;;;;;;10.13;2.30;;;18.30;99.90;;;;;;7277379;19;20188;-75
2023/08/13 00:21:39;;;;;;;11.20;2.40;;;18.20;99.90;;;;;;7277860;19;20719;-75
2023/08/13 00:24:05;;;;;;;12.57;2.63;;;18.20;99.90;;;;;;7293559;19;20197;-75
2023/08/13 00:26:31;;;;;;;13.50;2.87;;;18.20;99.90;;;;;;7297756;19;20183;-75
2023/08/13 00:28:56;;;;;;;14.00;2.60;;;18.10;99.90;;;;;;7278632;19;20288;-75
2023/08/13 00:31:22;;;;;;;12.80;2.67;;;18.10;99.90;;;;;;7278923;19;20185;-75
2023/08/13 00:33:48;;;;;;;14.87;2.67;;;18.20;99.90;;;;;;7277644;19;20193;-75
2023/08/13 00:36:15;;;;;;;12.03;2.70;;;18.30;99.90;;;;;;7278688;19;20192;-75
2023/08/13 00:38:41;;;;;;;17.93;2.63;;;18.30;99.90;;;;;;7277634;19;20975;-75
2023/08/13 00:41:07;;;;;;;14.20;2.60;;;18.20;99.90;;;;;;7277516;19;20191;-75
2023/08/13 00:43:35;;;;;;;10.60;2.40;;;18.20;99.90;;;;;;7300038;19;20185;-75
2023/08/13 00:46:02;;;;;;;12.17;2.47;;;18.20;99.90;;;;;;7278278;19;20205;-75
2023/08/13 00:48:29;;;;;;;13.80;2.47;;;18.20;99.90;;;;;;7281774;19;20187;-75
2023/08/13 00:50:55;;;;;;;9.57;2.33;;;18.30;99.90;;;;;;7284134;19;20202;-75
2023/08/13 00:53:20;;;;;;;16.27;2.87;;;18.30;99.90;;;;;;7283511;19;20182;-75
2023/08/13 00:55:47;;;;;;;15.43;2.50;;;18.30;99.90;;;;;;7286652;19;20208;-75
2023/08/13 00:58:14;;;;;;;14.80;2.63;;;18.40;99.90;;;;;;7284154;19;20189;-75
2023/08/13 01:00:39;;;;;;;13.93;2.63;;;18.40;99.90;;;;;;7284770;19;20693;-75
2023/08/13 01:03:07;;;;;;;12.17;2.90;;;18.30;99.90;;;;;;7288916;19;20206;-75
2023/08/13 01:05:54;;;;;;;13.93;2.87;;;18.30;99.90;;;;;;7305751;19;20254;-75
2023/08/13 01:08:34;;;;;;;13.73;2.47;;;18.20;99.90;;;;;;7181719;19;2004786;-75
2023/08/13 01:11:24;;;;;;;17.93;2.90;;;18.20;99.90;;;;;;7285171;19;20218;-75
2023/08/13 01:14:20;;;;;;;10.70;2.53;;;18.20;99.90;;;;;;7176850;19;2006114;-76
2023/08/13 01:16:48;;;;;;;14.33;2.93;;;18.20;99.90;;;;;;7181647;19;2004569;-75
2023/08/13 01:19:14;;;;;;;12.40;2.53;;;18.00;99.90;;;;;;7283140;19;20289;-74
2023/08/13 01:21:40;;;;;;;12.47;2.60;;;18.00;99.90;;;;;;7283313;19;20189;-74
2023/08/13 01:24:06;;;;;;;9.47;2.10;;;18.00;99.90;;;;;;7286429;19;20184;-75
2023/08/13 01:26:49;;;;;;;13.83;2.47;;;17.80;99.90;;;;;;7305209;19;20192;-75
2023/08/13 01:29:29;;;;;;;16.00;2.80;;;17.80;99.90;;;;;;7181161;19;2004623;-75
2023/08/13 01:31:57;;;;;;;12.37;2.63;;;17.80;99.90;;;;;;7284306;19;20190;-75
2023/08/13 01:34:24;;;;;;;11.37;2.77;;;17.80;99.90;;;;;;7282447;19;20201;-74
2023/08/13 01:36:50;;;;;;;15.43;2.57;;;17.70;99.90;;;;;;7283306;19;20296;-75
2023/08/13 01:39:16;;;;;;;11.57;2.73;;;17.70;99.90;;;;;;7283344;19;20325;-74
2023/08/13 01:41:52;;;;;;;12.97;3.00;;;17.70;99.90;;;;;;7283320;19;20210;-74
2023/08/13 01:44:18;;;;;;;17.00;2.77;;;17.60;99.90;;;;;;7284000;19;20189;-75
2023/08/13 01:46:44;;;;;;;14.07;2.47;;;17.60;99.90;;;;;;7282241;19;20193;-74
2023/08/13 01:49:10;;;;;;;14.70;2.40;;;17.50;99.90;;;;;;7283389;19;20648;-75
2023/08/13 01:51:35;;;;;;;14.87;2.90;;;17.50;99.90;;;;;;7290934;19;20192;-75
2023/08/13 01:54:01;;;;;;;14.10;2.67;;;17.50;99.90;;;;;;7304340;19;20667;-75
2023/08/13 01:56:27;;;;;;;10.50;2.50;;;17.50;99.90;;;;;;7283746;19;20181;-75
2023/08/13 01:58:53;;;;;;;14.43;2.63;;;17.50;99.90;;;;;;7279444;19;20189;-75
2023/08/13 02:01:18;;;;;;;15.10;2.60;;;17.50;99.90;;;;;;7280022;19;20185;-76
2023/08/13 02:03:44;;;;;;;12.23;2.53;;;17.60;99.90;;;;;;7281376;19;20209;-75
2023/08/13 02:06:10;;;;;;;19.60;3.07;;;17.70;99.90;;;;;;7281415;19;20199;-75
2023/08/13 02:08:35;;;;;;;12.23;2.60;;;17.70;99.90;;;;;;7287738;19;20189;-75
2023/08/13 02:11:01;;;;;;;16.63;3.23;;;17.70;99.90;;;;;;7303851;19;20196;-75
2023/08/13 02:13:28;;;;;;;13.90;2.30;;;17.70;99.90;;;;;;7280956;19;20197;-76
2023/08/13 02:15:54;;;;;;;12.53;2.57;;;17.70;99.90;;;;;;7280987;19;20214;-75
2023/08/13 02:18:20;;;;;;;13.23;2.50;;;17.80;99.90;;;;;;7282184;19;20206;-76
2023/08/13 02:20:47;;;;;;;15.37;2.77;;;17.90;99.90;;;;;;7280833;19;20192;-75
2023/08/13 02:23:13;;;;;;;15.50;2.70;;;17.80;99.90;;;;;;7283323;19;20193;-75
2023/08/13 02:25:39;;;;;;;10.27;2.60;;;17.90;99.90;;;;;;7281083;19;20188;-75
2023/08/13 02:28:05;;;;;;;17.23;2.50;;;17.90;99.90;;;;;;7300747;19;20197;-75
2023/08/13 02:30:30;;;;;;;14.03;2.93;;;17.80;99.90;;;;;;7292866;19;20192;-76
2023/08/13 02:32:56;;;;;;;12.23;2.63;;;17.90;99.90;;;;;;7280867;19;20201;-75
2023/08/13 02:35:22;;;;;;;15.77;2.70;;;17.90;99.90;;;;;;7281424;19;20772;-75
2023/08/13 02:37:48;;;;;;;10.63;2.63;;;17.80;99.90;;;;;;7281538;19;20250;-75
2023/08/13 02:40:14;;;;;;;15.60;2.77;;;17.80;99.90;;;;;;7279499;19;20183;-75
2023/08/13 02:42:39;;;;;;;15.80;2.87;;;17.70;99.90;;;;;;7282515;19;20192;-75
2023/08/13 02:45:06;;;;;;;10.70;2.37;;;17.70;99.90;;;;;;7290210;19;20218;-75
2023/08/13 02:47:32;;;;;;;12.73;2.60;;;17.80;99.90;;;;;;7302208;19;20192;-76
2023/08/13 02:49:59;;;;;;;14.53;2.73;;;17.80;99.90;;;;;;7281157;19;20187;-75
2023/08/13 02:52:24;;;;;;;16.57;3.33;;;17.80;99.90;;;;;;7281468;19;20233;-75
2023/08/13 02:54:50;;;;;;;14.17;2.90;;;17.70;99.90;;;;;;7278871;19;20185;-75
2023/08/13 02:57:16;;;;;;;13.83;2.73;;;17.60;99.90;;;;;;7281694;19;20305;-75
2023/08/13 02:59:42;;;;;;;13.67;2.77;;;17.50;99.90;;;;;;7278398;19;20787;-75
2023/08/13 03:02:08;;;;;;;14.07;3.07;;;17.40;99.90;;;;;;7279785;19;20204;-75
2023/08/13 03:04:33;;;;;;;16.23;2.80;;;17.40;99.90;;;;;;7301781;19;20190;-75
2023/08/13 03:06:59;;;;;;;14.03;2.90;;;17.30;99.90;;;;;;7279998;19;20732;-75
2023/08/13 03:09:25;;;;;;;17.53;3.00;;;17.20;99.90;;;;;;7280004;19;20643;-75
2023/08/13 03:11:51;;;;;;;12.27;2.93;;;17.10;99.90;;;;;;7279495;19;20188;-75
2023/08/13 03:14:18;;;;;;;14.93;2.93;;;17.00;99.90;;;;;;7278751;19;20204;-75
2023/08/13 03:16:44;;;;;;;18.77;3.25;;;17.00;99.90;;;;;;7278774;19;21421;-75
2023/08/13 03:19:10;;;;;;;19.57;3.53;;;16.90;99.90;;;;;;7279756;19;20255;-74
2023/08/13 03:21:36;;;;;;;16.30;3.20;;;17.00;99.90;;;;;;7287792;19;20199;-75
2023/08/13 03:24:02;;;;;;;11.53;2.30;;;17.00;99.90;;;;;;7302743;19;20664;-75
2023/08/13 03:26:28;;;;;;;13.40;2.87;;;16.90;99.90;;;;;;7278879;19;20184;-75
2023/08/13 03:28:54;;;;;;;13.33;2.83;;;16.80;99.90;;;;;;7280026;19;20597;-75
2023/08/13 03:31:20;;;;;;;14.53;2.60;;;16.90;99.90;;;;;;7279175;19;20200;-74
2023/08/13 03:33:51;;;;;;;13.03;2.97;;;16.80;99.90;;;;;;7278542;19;20184;-74
2023/08/13 03:36:17;;;;;;;15.90;3.13;;;16.80;99.90;;;;;;7280246;19;20195;-74
2023/08/13 03:38:43;;;;;;;14.87;3.13;;;16.80;99.90;;;;;;7278921;19;20228;-75
2023/08/13 03:41:09;;;;;;;16.27;2.80;;;16.80;99.90;;;;;;7279403;19;20186;-74
2023/08/13 03:43:35;;;;;;;10.60;2.80;;;16.80;99.90;;;;;;7298040;19;20187;-74
2023/08/13 03:46:04;;;;;;;13.20;2.93;;;16.90;99.90;;;;;;7292153;19;20328;-75
2023/08/13 03:48:30;;;;;;;12.63;3.27;;;16.90;99.90;;;;;;7278230;19;20224;-76
2023/08/13 03:50:55;;;;;;;13.80;3.07;;;17.00;99.90;;;;;;7280213;19;20170;-76
2023/08/13 03:53:24;;;;;;;11.23;2.83;;;16.90;99.90;;;;;;7279121;19;20214;-76
2023/08/13 03:55:53;;;;;;;16.83;2.97;;;16.90;99.90;;;;;;7277022;19;20268;-76
2023/08/13 03:58:18;;;;;;;12.23;3.00;;;17.00;99.90;;;;;;7279278;19;20189;-75
2023/08/13 04:00:44;;;;;;;17.00;2.90;;;16.90;99.90;;;;;;7277948;19;20183;-76
2023/08/13 04:03:11;;;;;;;12.17;2.80;;;16.90;99.90;;;;;;7277085;19;20192;-75
2023/08/13 04:05:36;;;;;;;13.57;2.90;;;16.90;99.90;;;;;;7281074;19;20196;-75
2023/08/13 04:08:02;;;;;;;14.83;2.97;;;17.00;99.90;;;;;;7300087;19;20208;-75
2023/08/13 04:10:28;;;;;;;9.77;2.70;;;17.00;99.90;;;;;;7280485;19;20191;-75
2023/08/13 04:12:57;;;;;;;13.33;2.77;;;17.00;99.90;;;;;;7277675;19;20196;-75
2023/08/13 04:15:23;;;;;;;12.17;2.87;;;17.00;99.90;;;;;;7277688;19;20207;-75
2023/08/13 04:17:49;;;;;;;15.30;3.07;;;17.00;99.90;;;;;;7278180;19;20196;-75
2023/08/13 04:20:17;;;;;;;12.70;2.83;;;17.00;99.90;;;;;;7277366;19;20209;-75
2023/08/13 04:22:43;;;;;;;10.27;2.50;;;17.00;99.90;;;;;;7280079;19;20227;-75
2023/08/13 04:25:09;;;;;;;11.50;2.57;;;17.00;99.90;;;;;;7283791;19;20361;-75
2023/08/13 04:27:36;;;;;;;13.57;2.90;;;16.90;99.90;;;;;;7292641;19;20188;-75
2023/08/13 04:30:04;;;;;;;12.13;2.60;;;17.00;99.90;;;;;;7307226;19;20554;-75
2023/08/13 04:32:31;;;;;;;12.30;2.63;;;17.00;99.90;;;;;;7284847;19;20185;-75
2023/08/13 04:34:58;;;;;;;13.17;2.90;;;17.00;99.90;;;;;;7284396;19;20576;-75
2023/08/13 04:37:24;;;;;;;14.33;3.03;;;16.90;99.90;;;;;;7286173;19;20192;-75
2023/08/13 04:39:50;;;;;;;14.20;3.07;;;16.90;99.90;;;;;;7283474;19;20196;-75
2023/08/13 04:42:16;;;;;;;12.80;3.10;;;16.90;99.90;;;;;;7285301;19;20199;-75
2023/08/13 04:44:42;;;;;;;16.73;3.00;;;16.80;99.90;;;;;;7284646;19;20189;-75
2023/08/13 04:47:08;;;;;;;13.80;2.83;;;16.70;99.90;;;;;;7282662;19;20192;-77
2023/08/13 04:49:33;;;;;;;14.07;2.90;;;16.80;99.90;;;;;;7307431;19;20639;-75
2023/08/13 04:51:59;;;;;;;11.50;2.63;;;16.80;99.90;;;;;;7284775;19;20676;-75
2023/08/13 04:54:25;;;;;;;14.33;2.77;;;17.00;99.90;;;;;;7284646;19;20226;-75
2023/08/13 04:56:51;;;;;;;9.80;3.13;;;17.00;99.90;;;;;;7285712;19;20275;-75
2023/08/13 04:59:16;;;;;;;11.57;2.77;;;17.00;99.90;;;;;;7282853;19;20210;-75
2023/08/13 05:01:42;;;;;;;14.60;2.67;;;17.10;99.90;;;;;;7285123;19;20192;-75
2023/08/13 05:04:08;;;;;;;11.63;2.80;;;17.20;99.90;;;;;;7282732;19;20304;-76
2023/08/13 05:06:36;;;;;;;13.43;2.80;;;17.20;99.90;;;;;;7292848;19;20190;-75
2023/08/13 05:09:02;;;;;;;16.43;2.90;;;17.20;99.90;;;;;;7302606;19;20741;-76
2023/08/13 05:11:27;;;;;;;15.03;2.73;;;17.30;99.90;;;;;;7284184;19;20196;-75
2023/08/13 05:13:53;;;;;;;16.43;2.80;;;17.40;99.90;;;;;;7283574;19;20853;-75
2023/08/13 05:16:20;;;;;;;9.90;2.57;;;17.40;99.90;;;;;;7283558;19;20215;-75
2023/08/13 05:18:47;;;;;;;14.63;2.80;;;17.50;99.90;;;;;;7281904;19;20675;-75
2023/08/13 05:21:15;;;;;;;13.30;2.57;;;17.90;99.90;;;;;;7283895;19;20192;-75
2023/08/13 05:23:42;;;;;;;14.30;2.43;;;18.40;99.90;;;;;;7282349;19;20188;-75
2023/08/13 05:26:08;;;;;;;16.60;2.60;;;18.80;99.90;;;;;;7283147;19;20990;-75
2023/08/13 05:28:34;;;;;;;16.90;3.03;;;19.40;99.90;;;;;;7304325;19;20857;-75
2023/08/13 05:31:03;;;;;;;13.50;2.17;;;20.00;99.90;;;;;;7284568;19;20219;-76
2023/08/13 05:33:29;;;;;;;9.23;2.37;;;20.60;99.90;;;;;;7281832;19;20192;-75
2023/08/13 05:35:55;;;;;;;11.30;2.70;;;21.50;99.90;;;;;;7283420;19;21076;-76
2023/08/13 05:38:20;;;;;;;16.33;2.63;;;21.50;99.90;;;;;;7283596;19;20213;-75
2023/08/13 05:40:47;;;;;;;10.37;2.50;;;21.30;99.90;;;;;;7283027;19;20201;-74
2023/08/13 05:43:13;;;;;;;10.20;2.83;;;21.70;99.90;;;;;;7282437;19;20672;-75
2023/08/13 05:45:41;;;;;;;11.10;2.40;;;21.50;99.90;;;;;;7283094;19;20214;-74
2023/08/13 05:48:07;;;;;;;9.90;2.57;;;20.90;99.90;;;;;;7282881;19;20557;-76
2023/08/13 05:50:33;;;;;;;8.27;2.33;;;20.50;99.90;;;;;;7305508;19;20197;-75
2023/08/13 05:52:59;;;;;;;15.10;3.03;;;20.10;99.90;;;;;;7281713;19;20191;-75
2023/08/13 05:55:25;;;;;;;11.67;2.53;;;19.70;99.90;;;;;;7282779;19;20193;-75
2023/08/13 05:57:51;;;;;;;11.73;2.70;;;19.40;99.90;;;;;;7281619;19;20193;-75
2023/08/13 06:00:17;;;;;;;12.97;2.70;;;19.10;99.90;;;;;;7282247;19;20199;-75
2023/08/13 06:02:43;;;;;;;12.20;3.23;;;19.00;99.90;;;;;;7282172;19;20193;-75
2023/08/13 06:05:09;;;;;;;13.47;2.87;;;18.90;99.90;;;;;;7282660;19;20704;-74
2023/08/13 06:07:35;;;;;;;10.93;2.80;;;19.10;99.90;;;;;;7303575;19;20209;-75
2023/08/13 06:10:04;;;;;;;16.37;2.50;;;19.80;99.90;;;;;;7281710;19;20187;-75
2023/08/13 06:12:30;;;;;;;13.90;2.80;;;20.20;99.90;;;;;;7280664;19;20188;-75
2023/08/13 06:14:56;;;;;;;12.77;2.50;;;20.10;99.90;;;;;;7281654;19;20690;-76
2023/08/13 06:17:22;;;;;;;14.10;2.57;;;20.00;99.90;;;;;;7282131;19;20225;-75
2023/08/13 06:19:48;;;;;;;12.10;2.10;;;19.90;99.90;;;;;;7281329;19;20258;-75
2023/08/13 06:22:14;;;;;;;12.50;2.77;;;20.00;99.90;;;;;;7282761;19;20684;-75
2023/08/13 06:24:39;;;;;;;12.47;2.87;;;20.10;99.90;;;;;;7280709;19;20186;-74
2023/08/13 06:27:05;;;;;;;16.83;2.93;;;19.90;99.90;;;;;;7300577;19;20224;-75
2023/08/13 06:29:31;;;;;;;15.90;2.67;;;19.90;99.90;;;;;;7291231;19;20193;-75
2023/08/13 06:31:56;;;;;;;13.67;3.10;;;19.90;99.90;;;;;;7281481;19;20634;-75
2023/08/13 06:34:22;;;;;;;15.17;2.67;;;19.80;99.90;;;;;;7280794;19;20194;-75
2023/08/13 06:36:48;;;;;;;9.73;2.40;;;19.80;99.90;;;;;;7280868;19;20212;-75
2023/08/13 06:39:14;;;;;;;14.60;2.93;;;19.80;99.90;;;;;;7280125;19;20302;-75
2023/08/13 06:41:39;;;;;;;15.30;2.63;;;19.80;99.90;;;;;;7281594;19;20228;-75
2023/08/13 06:44:06;;;;;;;15.33;3.10;;;19.90;99.90;;;;;;7302255;19;20186;-75
2023/08/13 06:46:32;;;;;;;12.13;2.33;;;20.00;99.90;;;;;;7298283;19;20184;-75
2023/08/13 06:48:58;;;;;;;11.10;2.60;;;20.10;99.90;;;;;;7280971;19;20354;-75
2023/08/13 06:51:23;;;;;;;12.00;2.53;;;20.20;99.90;;;;;;7280704;19;20262;-75
2023/08/13 06:53:49;;;;;;;11.20;2.57;;;20.40;99.90;;;;;;7280206;19;20621;-75
2023/08/13 06:56:15;;;;;;;9.90;2.00;;;20.50;99.90;;;;;;7281750;19;20192;-75
2023/08/13 06:58:40;;;;;;;13.07;2.43;;;20.60;99.90;;;;;;7281666;19;20544;-76
2023/08/13 07:01:06;;;;;;;9.73;2.57;;;20.70;99.90;;;;;;7290035;19;20224;-75
2023/08/13 07:03:32;;;;;;;13.00;2.77;;;20.70;99.90;;;;;;7299524;19;20199;-75
2023/08/13 07:05:59;;;;;;;8.90;2.33;;;20.80;99.90;;;;;;7278681;19;20233;-75
2023/08/13 07:08:25;;;;;;;14.03;2.53;;;20.80;99.90;;;;;;7279221;19;20194;-75
2023/08/13 07:10:51;;;;;;;11.17;2.10;;;21.00;99.90;;;;;;7278713;19;20187;-75
2023/08/13 07:13:16;;;;;;;18.10;3.00;;;21.00;99.90;;;;;;7278979;19;20205;-75
2023/08/13 07:15:42;;;;;;;12.07;2.47;;;21.10;99.90;;;;;;7279384;19;20189;-75
2023/08/13 07:18:08;;;;;;;8.73;2.33;;;21.10;99.90;;;;;;7279693;19;20191;-75
2023/08/13 07:20:33;;;;;;;11.30;2.30;;;21.20;99.90;;;;;;7301891;19;20191;-76
2023/08/13 07:23:00;;;;;;;11.03;2.60;;;21.40;99.90;;;;;;7278783;19;20197;-75
2023/08/13 07:25:26;;;;;;;11.97;2.40;;;21.50;99.90;;;;;;7279779;19;20204;-76
2023/08/13 07:27:54;;;;;;;10.93;2.37;;;21.50;99.90;;;;;;7277694;19;20291;-76
2023/08/13 07:30:20;;;;;;;13.37;2.43;;;21.50;99.90;;;;;;7280169;19;20199;-75
2023/08/13 07:32:46;;;;;;;12.97;2.20;;;21.60;99.90;;;;;;7279318;19;20849;-75
2023/08/13 07:35:12;;;;;;;11.10;2.80;;;21.70;99.90;;;;;;7279908;19;20189;-75
2023/08/13 07:37:38;;;;;;;12.90;2.03;;;21.80;99.90;;;;;;7278778;19;20200;-75
2023/08/13 07:40:08;;;;;;;13.20;2.50;;;21.70;99.90;;;;;;7300905;19;20220;-75
2023/08/13 07:42:34;;;;;;;14.73;2.60;;;21.70;99.90;;;;;;7280241;19;20191;-75
2023/08/13 07:45:01;;;;;;;14.30;2.80;;;21.90;99.90;;;;;;7279485;19;20185;-75
2023/08/13 07:47:26;;;;;;;12.17;2.53;;;22.00;99.90;;;;;;7279193;19;20182;-75
2023/08/13 07:49:52;;;;;;;11.83;2.70;;;22.20;99.90;;;;;;7279633;19;20198;-75
2023/08/13 07:52:18;;;;;;;12.77;2.70;;;22.50;99.90;;;;;;7276586;19;20216;-75
2023/08/13 07:54:44;;;;;;;8.97;1.97;;;22.50;99.90;;;;;;7279462;19;20184;-75
2023/08/13 07:57:09;;;;;;;12.33;2.43;;;22.60;99.90;;;;;;7277672;19;21065;-75
2023/08/13 07:59:35;;;;;;;11.97;2.10;;;22.50;99.90;;;;;;7308024;19;20195;-76
2023/08/13 08:02:03;;;;;;;6.20;1.80;;;22.70;99.90;;;;;;7286236;19;20180;-76
2023/08/13 08:04:29;;;;;;;11.43;2.50;;;22.80;99.90;;;;;;7285489;19;20196;-75
2023/08/13 08:06:55;;;;;;;11.63;2.20;;;22.90;99.90;;;;;;7284624;19;20725;-75
2023/08/13 08:09:20;;;;;;;11.63;2.20;;;23.20;99.90;;;;;;7285311;19;20284;-75
2023/08/13 08:11:47;;;;;;;11.23;2.70;;;23.50;99.90;;;;;;7285981;19;20196;-75
2023/08/13 08:14:13;;;;;;;9.73;2.23;;;23.40;99.90;;;;;;7285126;19;20193;-75
2023/08/13 08:16:38;;;;;;;11.80;2.57;;;23.40;99.90;;;;;;7285815;19;21359;-76
2023/08/13 08:19:04;;;;;;;10.40;2.20;;;23.30;99.90;;;;;;7307707;19;20189;-76
2023/08/13 08:21:31;;;;;;;11.07;2.57;;;23.50;99.90;;;;;;7284330;19;20214;-76
2023/08/13 08:23:57;;;;;;;15.00;2.30;;;23.60;99.90;;;;;;7285280;19;20626;-75
2023/08/13 08:26:23;;;;;;;13.03;2.57;;;24.20;99.90;;;;;;7284410;19;20192;-76
2023/08/13 08:28:49;;;;;;;11.43;2.50;;;24.70;99.90;;;;;;7285988;19;20192;-75
2023/08/13 08:31:14;;;;;;;12.90;2.30;;;25.20;99.90;;;;;;7285543;19;20361;-75
2023/08/13 08:33:40;;;;;;;11.67;2.20;;;25.30;99.90;;;;;;7286518;19;20287;-75
2023/08/13 08:36:06;;;;;;;13.38;2.47;;;26.00;99.90;;;;;;7302533;19;20632;-76
2023/08/13 08:38:32;;;;;;;8.73;2.00;;;25.90;99.90;;;;;;7297223;19;20282;-75
2023/08/13 08:40:59;;;;;;;12.18;2.65;;;26.20;99.90;;;;;;7285033;19;20247;-76
2023/08/13 08:43:29;;;;;;;11.88;2.20;;;26.20;99.90;;;;;;7284567;19;20185;-75
2023/08/13 08:45:57;;;;;;;13.35;2.72;;;26.40;99.90;;;;;;7285139;19;20232;-75
2023/08/13 08:48:26;;;;;;;15.40;7.93;;;27.00;99.90;;;;;;7282664;19;20556;-76
2023/08/13 08:50:52;;;;;;;10.27;3.10;;;28.00;99.90;;;;;;7284131;19;20565;-76
2023/08/13 08:53:19;;;;;;;10.75;2.80;;;29.60;99.90;;;;;;7283317;19;20676;-76
2023/08/13 08:55:47;;;;;;;23.60;13.45;;;31.20;99.90;;;;;;7285946;19;20208;-76
2023/08/13 08:58:13;;;;;;;11.68;4.93;;;31.30;99.90;;;;;;7284686;19;20560;-76
2023/08/13 09:00:39;;;;;;;13.18;2.67;;;32.20;99.90;;;;;;7283980;19;20188;-76
2023/08/13 09:03:05;;;;;;;15.30;8.55;;;33.90;99.90;;;;;;7304911;19;20196;-76
2023/08/13 09:05:33;;;;;;;11.57;3.28;;;35.40;99.90;;;;;;7282944;19;20196;-76
2023/08/13 09:07:58;;;;;;;12.27;2.28;;;35.20;99.90;;;;;;7283296;19;21990;-73
2023/08/13 09:10:24;;;;;;;10.55;2.42;;;34.20;99.40;;;;;;7284346;19;20192;-75
2023/08/13 09:12:53;;;;;;;8.27;2.50;;;32.60;99.90;;;;;;7282807;19;20285;-74
2023/08/13 09:15:19;;;;;;;15.15;4.20;;;31.60;99.90;;;;;;7284606;19;20575;-75
2023/08/13 09:17:45;;;;;;;7.50;2.60;;;31.30;99.90;;;;;;7283158;19;20193;-75
2023/08/13 09:20:20;;;;;;;11.50;2.83;;;32.20;99.90;;;;;;7283839;19;20287;-74
2023/08/13 09:22:47;;;;;;;8.75;2.53;;;32.90;99.90;;;;;;7282575;19;20191;-75
2023/08/13 09:25:18;;;;;;;9.10;2.15;;;34.50;99.70;;;;;;7283049;19;20187;-75
2023/08/13 09:27:45;;;;;;;11.40;2.38;;;34.80;97.20;;;;;;7280454;19;20235;-75
2023/08/13 09:30:18;;;;;;;7.47;2.30;;;34.80;95.20;;;;;;7282233;19;20199;-74
2023/08/13 09:32:46;;;;;;;10.77;3.55;;;34.60;95.40;;;;;;7283528;19;20197;-74
2023/08/13 09:35:12;;;;;;;10.88;2.80;;;35.30;94.00;;;;;;7283757;19;20199;-74
2023/08/13 09:37:38;;;;;;;12.23;2.15;;;34.30;94.50;;;;;;7285929;19;20183;-75
2023/08/13 09:40:05;;;;;;;11.23;2.20;;;34.20;94.60;;;;;;7304013;19;20209;-75
2023/08/13 09:42:33;;;;;;;6.72;2.22;;;34.00;93.20;;;;;;7284021;19;20185;-75
2023/08/13 09:45:02;;;;;;;10.40;2.45;;;33.50;94.90;;;;;;7283206;19;20207;-74
2023/08/13 09:47:29;;;;;;;13.50;3.35;;;32.70;96.00;;;;;;7282811;19;20597;-75
2023/08/13 09:49:58;;;;;;;8.02;2.00;;;32.60;97.20;;;;;;7283376;19;20193;-74
2023/08/13 09:52:27;;;;;;;9.80;2.40;;;32.80;96.00;;;;;;7282990;19;20180;-75
2023/08/13 09:55:06;;;;;;;11.18;2.88;;;33.20;96.20;;;;;;7282956;19;20511;-75
2023/08/13 09:57:33;;;;;;;10.70;4.72;;;34.10;95.40;;;;;;7283716;19;20185;-76
2023/08/13 09:59:59;;;;;;;12.80;5.43;;;36.50;94.30;;;;;;7282149;19;20660;-75
2023/08/13 10:02:27;;;;;;;10.20;2.58;;;35.90;91.40;;;;;;7281679;19;20185;-75
2023/08/13 10:04:53;;;;;;;12.70;2.40;;;35.20;91.10;;;;;;7282642;19;20189;-75
2023/08/13 10:07:20;;;;;;;9.10;2.67;;;35.00;90.60;;;;;;7279815;19;20192;-75
2023/08/13 10:09:46;;;;;;;11.38;2.33;;;34.50;90.90;;;;;;7282147;19;20205;-75
2023/08/13 10:12:12;;;;;;;9.15;2.17;;;33.60;92.20;;;;;;7281649;19;20189;-74
2023/08/13 10:14:38;;;;;;;8.75;1.92;;;33.00;92.90;;;;;;7284179;19;20268;-74
2023/08/13 10:17:06;;;;;;;7.97;1.73;;;32.40;93.50;;;;;;7304653;19;20656;-75
2023/08/13 10:19:39;;;;;;;9.75;2.35;;;32.90;93.50;;;;;;7282596;19;20180;-75
2023/08/13 10:22:07;;;;;;;10.18;2.40;;;33.50;92.60;;;;;;7281987;19;20189;-75
2023/08/13 10:24:33;;;;;;;7.28;2.10;;;34.10;91.30;;;;;;7280785;19;20224;-75
2023/08/13 10:26:59;;;;;;;7.30;2.08;;;34.60;90.80;;;;;;7281205;19;20204;-75
2023/08/13 10:29:35;;;;;;;7.03;1.85;;;34.80;90.60;;;;;;7281583;19;20669;-76
2023/08/13 10:32:13;;;;;;;7.80;2.28;;;34.80;90.10;;;;;;7282172;19;20197;-76
2023/08/13 10:34:39;;;;;;;8.30;2.10;;;33.80;90.90;;;;;;7259938;19;20192;-76
2023/08/13 10:37:22;;;;;;;9.30;2.10;;;32.90;92.40;;;;;;7303035;19;20255;-76
2023/08/13 10:40:06;;;;;;;8.55;2.15;;;34.40;90.60;;;;;;7178660;19;2004601;-73
2023/08/13 10:42:34;;;;;;;9.68;2.28;;;33.90;90.20;;;;;;7282600;19;20203;-74
2023/08/13 10:45:04;;;;;;;9.55;2.40;;;32.90;90.40;;;;;;7280296;19;20188;-75
2023/08/13 10:47:52;;;;;;;9.63;2.60;;;32.30;92.40;;;;;;7279618;19;20208;-74
2023/08/13 10:50:22;;;;;;;8.98;2.60;;;32.20;92.60;;;;;;7179019;19;2004710;-74
2023/08/13 10:52:53;;;;;;;8.85;2.15;;;33.40;91.60;;;;;;7280777;19;20196;-74
2023/08/13 10:55:23;;;;;;;9.00;2.15;;;35.50;90.40;;;;;;7281393;19;20205;-76
2023/08/13 10:57:52;;;;;;;9.70;2.17;;;36.90;86.10;;;;;;7280125;19;20197;-75
2023/08/13 11:00:26;;;;;;;8.38;1.80;;;37.20;83.00;;;;;;7280795;19;20196;-75
2023/08/13 11:03:17;;;;;;;10.55;2.13;;;36.50;82.80;;;;;;7279462;19;20196;-75
2023/08/13 11:05:44;;;;;;;9.48;2.15;;;36.50;83.40;;;;;;7178598;19;2004564;-75
2023/08/13 11:08:17;;;;;;;8.52;2.10;;;36.70;82.10;;;;;;7279232;19;20185;-76
2023/08/13 11:10:46;;;;;;;8.30;2.40;;;37.00;80.70;;;;;;7280187;19;20189;-76
2023/08/13 11:13:12;;;;;;;7.95;1.88;;;36.70;79.80;;;;;;7280234;19;20225;-75
2023/08/13 11:15:38;;;;;;;10.05;2.30;;;35.60;80.10;;;;;;7282386;19;20187;-75
2023/08/13 11:18:04;;;;;;;6.53;1.80;;;34.40;84.40;;;;;;7303388;19;20248;-75
2023/08/13 11:20:30;;;;;;;9.70;2.00;;;33.30;87.30;;;;;;7278895;19;20302;-75
2023/08/13 11:22:56;;;;;;;10.15;2.20;;;33.50;89.30;;;;;;7280796;19;20197;-74
2023/08/13 11:25:21;;;;;;;8.93;1.88;;;35.20;90.30;;;;;;7280505;19;20185;-75
2023/08/13 11:27:47;;;;;;;8.73;1.95;;;36.60;85.30;;;;;;7279508;19;20223;-75
2023/08/13 11:30:13;;;;;;;10.00;1.83;;;36.60;78.70;;;;;;7278369;19;20193;-74
2023/08/13 11:32:39;;;;;;;9.57;2.13;;;35.50;80.60;;;;;;7274067;19;20212;-74
2023/08/13 11:35:12;;;;;;;7.55;1.85;;;34.40;85.10;;;;;;7298823;19;20218;-75
2023/08/13 11:37:38;;;;;;;7.57;1.63;;;33.70;84.10;;;;;;7265876;19;20197;-74
2023/08/13 11:40:10;;;;;;;7.55;1.50;;;33.30;87.00;;;;;;7299922;19;20293;-75
2023/08/13 11:42:56;;;;;;;9.52;2.22;;;32.30;89.60;;;;;;7279581;19;20600;-75
2023/08/13 11:45:23;;;;;;;9.55;1.95;;;32.40;90.00;;;;;;7178695;19;2004617;-75
2023/08/13 11:47:50;;;;;;;9.20;1.75;;;33.80;90.80;;;;;;7279486;19;20185;-75
2023/08/13 11:50:23;;;;;;;7.30;1.60;;;34.70;86.20;;;;;;7278246;19;20203;-75
2023/08/13 11:53:08;;;;;;;7.25;1.95;;;35.30;84.00;;;;;;7277845;19;20567;-75
2023/08/13 11:55:34;;;;;;;8.10;1.92;;;36.40;83.90;;;;;;7279186;19;20193;-75
2023/08/13 11:58:00;;;;;;;6.63;1.75;;;36.10;79.60;;;;;;7277788;19;20193;-75
2023/08/13 12:00:26;;;;;;;7.15;1.95;;;36.60;81.90;;;;;;7277956;19;20217;-75
2023/08/13 12:02:58;;;;;;;6.47;1.65;;;36.90;78.50;;;;;;7278454;19;20253;-75
2023/08/13 12:05:26;;;;;;;7.03;1.70;;;36.00;77.50;;;;;;7278723;19;20181;-75
2023/08/13 12:07:53;;;;;;;8.20;1.77;;;33.30;80.20;;;;;;7279720;19;20220;-75
2023/08/13 12:10:18;;;;;;;7.15;1.70;;;32.00;84.40;;;;;;7277816;19;20192;-74
2023/08/13 12:12:44;;;;;;;6.10;1.30;;;31.50;85.90;;;;;;7278134;19;20201;-74
2023/08/13 12:15:10;;;;;;;6.90;1.48;;;31.10;88.70;;;;;;7278391;19;20271;-75
2023/08/13 12:17:35;;;;;;;4.70;1.35;;;31.60;89.40;;;;;;7302112;19;20197;-75
2023/08/13 12:20:01;;;;;;;6.60;1.35;;;32.60;87.00;;;;;;7278099;19;20671;-75
2023/08/13 12:22:27;;;;;;;6.15;1.42;;;33.60;82.30;;;;;;7278593;19;21034;-75
2023/08/13 12:24:53;;;;;;;5.93;1.70;;;34.80;82.00;;;;;;7277782;19;20189;-75
2023/08/13 12:27:19;;;;;;;7.88;1.50;;;34.50;82.00;;;;;;7277239;19;20189;-75
2023/08/13 12:29:44;;;;;;;8.50;1.60;;;33.80;82.10;;;;;;7278389;19;20207;-75
2023/08/13 12:32:10;;;;;;;6.60;1.63;;;33.20;82.60;;;;;;7279210;19;20316;-75
2023/08/13 12:34:36;;;;;;;8.52;1.83;;;32.80;86.90;;;;;;7299764;19;20193;-75
2023/08/13 12:37:02;;;;;;;9.90;1.65;;;32.50;83.50;;;;;;7278378;19;20211;-75
2023/08/13 12:39:28;;;;;;;7.57;1.75;;;32.30;84.70;;;;;;7277031;19;20186;-75